createdAt,value
2022-10-30T00:04:05.087Z,18.58
2022-10-30T00:09:07.649Z,18.54
2022-10-30T00:14:11.574Z,18.55
2022-10-30T00:19:14.121Z,18.57
2022-10-30T00:24:16.630Z,18.54
2022-10-30T00:29:23.448Z,18.52
2022-10-30T00:34:25.996Z,18.51
2022-10-30T00:39:28.523Z,18.49
2022-10-30T00:44:41.459Z,18.45
2022-10-30T00:49:52.461Z,18.42
2022-10-30T00:54:57.547Z,18.39
2022-10-30T01:00:03.788Z,18.37
2022-10-30T01:05:07.646Z,18.35
2022-10-30T01:10:13.097Z,18.10
2022-10-30T01:15:17.731Z,18.23
2022-10-30T01:20:46.601Z,18.18
2022-10-30T01:26:01.072Z,18.13
2022-10-30T01:31:18.036Z,18.00
2022-10-30T01:36:27.207Z,18.01
2022-10-30T01:41:29.838Z,17.98
2022-10-30T01:46:45.834Z,17.89
2022-10-30T01:52:02.386Z,17.88
2022-10-30T01:57:10.137Z,17.81
2022-10-30T02:02:16.828Z,17.76
2022-10-30T02:07:20.003Z,17.68
2022-10-30T02:12:27.047Z,17.67
2022-10-30T02:17:31.357Z,17.56
2022-10-30T02:22:35.753Z,17.49
2022-10-30T02:27:38.538Z,17.52
2022-10-30T02:32:41.169Z,17.45
2022-10-30T02:37:45.127Z,17.34
2022-10-30T02:42:52.772Z,17.15
2022-10-30T02:47:55.911Z,17.06
2022-10-30T02:53:01.138Z,16.56
2022-10-30T04:25:06.657Z,15.74
2022-10-30T12:15:16.867Z,20.89
2022-10-30T16:00:01.121Z,19.59
2022-10-30T16:05:19.200Z,19.54
2022-10-30T16:10:23.536Z,19.41
2022-10-30T16:15:30.747Z,19.33
2022-10-30T16:20:33.913Z,19.15
2022-10-30T16:25:38.988Z,18.94
2022-10-30T16:30:45.300Z,18.77
2022-10-30T16:35:55.534Z,18.71
2022-10-30T16:40:58.942Z,18.54
2022-10-30T16:46:33.668Z,18.48
2022-10-30T16:51:39.130Z,18.31
2022-10-30T16:56:47.287Z,18.28
2022-10-30T17:01:56.549Z,18.22
2022-10-30T17:07:18.595Z,18.18
2022-10-30T17:12:23.544Z,18.28
2022-10-30T17:17:32.919Z,18.22
2022-10-30T17:22:35.628Z,18.16
2022-10-30T17:27:57.310Z,18.02
2022-10-30T17:33:02.725Z,17.77
2022-10-30T17:38:05.993Z,17.86
2022-10-30T17:43:10.723Z,17.84
2022-10-30T17:48:16.752Z,17.76
2022-10-30T17:53:22.657Z,17.75
2022-10-30T17:58:25.318Z,17.65
2022-10-30T18:03:29.405Z,17.11
2022-10-30T18:08:31.922Z,17.62
2022-10-30T18:13:34.467Z,17.61
2022-10-30T18:18:39.346Z,17.62
2022-10-30T18:23:58.744Z,17.70
2022-10-30T18:29:05.512Z,17.61
2022-10-30T18:34:16.988Z,17.47
2022-10-30T18:39:19.577Z,17.52
2022-10-30T18:44:22.104Z,17.47
2022-10-30T18:49:28.911Z,17.29
2022-10-30T18:54:31.843Z,17.49
2022-10-30T18:59:34.861Z,17.55
2022-10-30T19:04:39.663Z,17.39
2022-10-30T19:09:43.365Z,17.56
2022-10-30T19:14:45.955Z,17.64
2022-10-30T19:19:50.511Z,17.25
2022-10-30T19:24:53.363Z,17.59
2022-10-30T19:29:56.000Z,17.54
2022-10-30T19:35:00.411Z,17.42
2022-10-30T19:40:17.313Z,17.42
2022-10-30T19:45:21.356Z,17.23
2022-10-30T19:50:31.296Z,16.83
2022-10-30T19:55:36.902Z,17.37
2022-10-30T20:00:41.467Z,17.23
2022-10-30T20:05:47.379Z,17.24
2022-10-30T20:10:52.128Z,17.21
2022-10-30T20:15:56.109Z,17.19
2022-10-30T20:21:01.861Z,17.24
2022-10-30T20:26:11.591Z,17.27
2022-10-30T20:31:17.705Z,17.26
2022-10-30T20:36:21.636Z,17.09
2022-10-30T20:41:26.367Z,16.97
2022-10-30T20:46:29.010Z,16.93
2022-10-30T20:51:32.906Z,16.85
2022-10-30T20:56:35.676Z,16.68
2022-10-30T21:01:38.303Z,16.73
2022-10-30T21:06:42.450Z,16.82
2022-10-30T21:11:45.207Z,16.85
2022-10-30T21:16:47.955Z,16.80
2022-10-30T21:21:51.831Z,16.90
2022-10-30T21:26:54.885Z,16.92
2022-10-30T21:31:57.499Z,16.97
2022-10-30T21:37:01.397Z,17.04
2022-10-30T21:42:04.824Z,17.01
2022-10-30T21:47:07.564Z,16.94
2022-10-30T21:52:12.939Z,16.72
2022-10-30T21:57:15.654Z,16.88
2022-10-30T22:02:18.700Z,16.80
2022-10-30T22:07:22.736Z,16.94
2022-10-30T22:12:25.335Z,16.98
2022-10-30T22:17:30.760Z,16.96
2022-10-30T22:22:37.947Z,16.93
2022-10-30T22:27:41.318Z,16.94
2022-10-30T22:32:43.860Z,16.90
2022-10-30T22:37:47.929Z,16.85
2022-10-30T22:42:50.602Z,16.76
2022-10-30T22:47:53.126Z,16.74
2022-10-30T22:52:59.722Z,16.81
2022-10-30T22:58:02.776Z,16.78
2022-10-30T23:03:05.687Z,16.75
2022-10-30T23:08:09.753Z,16.65
2022-10-30T23:13:12.353Z,16.48
2022-10-30T23:18:15.248Z,16.40
2022-10-30T23:23:19.127Z,16.38
2022-10-30T23:28:21.706Z,16.27
2022-10-30T23:33:24.504Z,16.32
2022-10-30T23:38:28.731Z,16.42
2022-10-30T23:43:31.232Z,16.37
2022-10-30T23:48:34.090Z,16.39
2022-10-30T23:53:38.055Z,16.26
2022-10-30T23:58:44.034Z,16.28
